Time;durP1;ratioP1;P1;durP2;ratioP2;P2;SDS_P1;SDS_P2;PMS_P1;PMS_P2;Temp;Humidity;BMP_temperature;BMP_pressure;BME280_temperature;BME280_humidity;BME280_pressure;Samples;Min_cycle;Max_cycle;Signal;HPM_P1;HPM_P2
2022/08/29 00:01:51;;;;;;;;;;;;;;;;;;5088436;28;19974;-80
2022/08/29 00:04:17;;;;;;;;;;;;;;;;;;5093190;28;20003;-80
2022/08/29 00:06:42;;;;;;;;;;;;;;;;;;5058333;28;20324;-80
2022/08/29 00:09:07;;;;;;;;;;;;;;;;;;5093257;28;20374;-79
2022/08/29 00:11:32;;;;;;;;;;;;;;;;;;5058295;28;19919;-80
2022/08/29 00:13:58;;;;;;;;;;;;;;;;;;5093588;28;19927;-79
2022/08/29 00:16:23;;;;;;;;;;;;;;;;;;5075015;28;19912;-78
2022/08/29 00:18:49;;;;;;;;;;;;;;;;;;5058187;28;19912;-77
2022/08/29 00:21:14;;;;;;;;;;;;;;;;;;5074905;28;19920;-79
2022/08/29 00:23:39;;;;;;;;;;;;;;;;;;5093286;28;19920;-79
2022/08/29 00:26:04;;;;;;;;;;;;;;;;;;5092716;28;20286;-79
2022/08/29 00:28:30;;;;;;;;;;;;;;;;;;5077411;28;20281;-79
2022/08/29 00:30:55;;;;;;;;;;;;;;;;;;5079256;28;20461;-79
2022/08/29 00:33:20;;;;;;;;;;;;;;;;;;5097204;28;19927;-79
2022/08/29 00:35:46;;;;;;;;;;;;;;;;;;5096971;28;20015;-80
2022/08/29 00:38:12;;;;;;;;;;;;;;;;;;5097114;28;19920;-79
2022/08/29 00:40:41;;;;;;;;;;;;;;;;;;5079382;28;19978;-79
2022/08/29 00:43:08;;;;;;;;;;;;;;;;;;5078526;28;19916;-79
2022/08/29 00:45:33;;;;;;;;;;;;;;;;;;5071377;28;19984;-79
2022/08/29 00:48:09;;;;;;;;;;;;;;;;;;5078967;28;19916;-79
2022/08/29 00:50:36;;;;;;;;;;;;;;;;;;5061924;28;19912;-79
2022/08/29 00:53:02;;;;;;;;;;;;;;;;;;5078680;28;19954;-79
2022/08/29 00:55:28;;;;;;;;;;;;;;;;;;5078788;28;20367;-79
2022/08/29 00:57:56;;;;;;;;;;;;;;;;;;5096694;28;19923;-79
2022/08/29 01:00:21;;;;;;;;;;;;;;;;;;5078594;28;19916;-79
2022/08/29 01:02:47;;;;;;;;;;;;;;;;;;5078710;28;19923;-79
2022/08/29 01:05:14;;;;;;;;;;;;;;;;;;5096744;28;19916;-79
2022/08/29 01:07:39;;;;;;;;;;;;;;;;;;5078696;28;19916;-79
2022/08/29 01:10:05;;;;;;;;;;;;;;;;;;5078375;28;19916;-79
2022/08/29 01:12:31;;;;;;;;;;;;;;;;;;5096662;28;19916;-79
2022/08/29 01:14:58;;;;;;;;;;;;;;;;;;5078178;28;19930;-78
2022/08/29 01:17:26;;;;;;;;;;;;;;;;;;5078093;28;19917;-78
2022/08/29 01:19:51;;;;;;;;;;;;;;;;;;5078319;28;19994;-79
2022/08/29 01:22:23;;;;;;;;;;;;;;;;;;5077913;28;20426;-79
2022/08/29 01:24:50;;;;;;;;;;;;;;;;;;5061360;28;19918;-79
2022/08/29 01:27:19;;;;;;;;;;;;;;;;;;5078455;28;20049;-79
2022/08/29 01:29:45;;;;;;;;;;;;;;;;;;5078421;28;19912;-79
2022/08/29 01:32:11;;;;;;;;;;;;;;;;;;5061072;28;19912;-79
2022/08/29 01:34:37;;;;;;;;;;;;;;;;;;5077932;28;19931;-79
2022/08/29 01:37:03;;;;;;;;;;;;;;;;;;5096411;28;19916;-79
2022/08/29 01:39:35;;;;;;;;;;;;;;;;;;5076715;28;19913;-79
2022/08/29 01:42:02;;;;;;;;;;;;;;;;;;5095861;28;19912;-79
2022/08/29 01:44:28;;;;;;;;;;;;;;;;;;5077720;28;19916;-79
2022/08/29 01:46:55;;;;;;;;;;;;;;;;;;5077689;28;19966;-79
2022/08/29 01:49:21;;;;;;;;;;;;;;;;;;5060862;28;20326;-79
2022/08/29 01:51:46;;;;;;;;;;;;;;;;;;5077479;28;19916;-79
2022/08/29 01:54:12;;;;;;;;;;;;;;;;;;5095446;28;20019;-78
2022/08/29 01:56:38;;;;;;;;;;;;;;;;;;5077387;28;19923;-78
2022/08/29 01:59:05;;;;;;;;;;;;;;;;;;5077660;28;20267;-78
2022/08/29 02:01:31;;;;;;;;;;;;;;;;;;5060501;28;20427;-79
2022/08/29 02:04:00;;;;;;;;;;;;;;;;;;5060482;28;20390;-79
2022/08/29 02:06:25;;;;;;;;;;;;;;;;;;5060800;28;20373;-79
2022/08/29 02:08:51;;;;;;;;;;;;;;;;;;5077409;28;20009;-79
2022/08/29 02:11:16;;;;;;;;;;;;;;;;;;5077211;28;19912;-79
2022/08/29 02:13:44;;;;;;;;;;;;;;;;;;5077099;28;20010;-79
2022/08/29 02:16:10;;;;;;;;;;;;;;;;;;5060391;28;19916;-79
2022/08/29 02:18:35;;;;;;;;;;;;;;;;;;5077024;28;20317;-79
2022/08/29 02:21:01;;;;;;;;;;;;;;;;;;5095043;28;19923;-79
2022/08/29 02:23:26;;;;;;;;;;;;;;;;;;5076924;28;19916;-79
2022/08/29 02:25:52;;;;;;;;;;;;;;;;;;5095432;28;19912;-79
2022/08/29 02:28:17;;;;;;;;;;;;;;;;;;5076662;28;19924;-78
2022/08/29 02:30:44;;;;;;;;;;;;;;;;;;5077068;28;19912;-78
2022/08/29 02:33:12;;;;;;;;;;;;;;;;;;5076794;28;19912;-79
2022/08/29 02:35:38;;;;;;;;;;;;;;;;;;5094986;28;20011;-78
2022/08/29 02:38:03;;;;;;;;;;;;;;;;;;5076657;28;19943;-79
2022/08/29 02:40:28;;;;;;;;;;;;;;;;;;5095192;28;19962;-79
2022/08/29 02:42:54;;;;;;;;;;;;;;;;;;5076456;28;20019;-79
2022/08/29 02:45:19;;;;;;;;;;;;;;;;;;5095120;28;19985;-79
2022/08/29 02:47:45;;;;;;;;;;;;;;;;;;5076451;28;19919;-79
2022/08/29 02:50:10;;;;;;;;;;;;;;;;;;5059280;28;19912;-79
2022/08/29 02:52:37;;;;;;;;;;;;;;;;;;5094419;28;19916;-79
2022/08/29 02:55:03;;;;;;;;;;;;;;;;;;5059332;28;20294;-79
2022/08/29 02:57:28;;;;;;;;;;;;;;;;;;5076060;28;19912;-79
2022/08/29 02:59:53;;;;;;;;;;;;;;;;;;5076245;28;19923;-78
2022/08/29 03:02:18;;;;;;;;;;;;;;;;;;5094268;28;19916;-79
2022/08/29 03:04:44;;;;;;;;;;;;;;;;;;5094297;28;19923;-78
2022/08/29 03:07:09;;;;;;;;;;;;;;;;;;5076003;28;20344;-79
2022/08/29 03:09:34;;;;;;;;;;;;;;;;;;5094600;28;19916;-79
2022/08/29 03:11:59;;;;;;;;;;;;;;;;;;5075922;28;20379;-79
2022/08/29 03:14:25;;;;;;;;;;;;;;;;;;5075998;28;19931;-79
2022/08/29 03:16:50;;;;;;;;;;;;;;;;;;5076160;28;19924;-79
2022/08/29 03:19:15;;;;;;;;;;;;;;;;;;5093959;28;20294;-78
2022/08/29 03:21:42;;;;;;;;;;;;;;;;;;5075812;28;19916;-78
2022/08/29 03:24:07;;;;;;;;;;;;;;;;;;5075676;28;20390;-78
2022/08/29 03:26:32;;;;;;;;;;;;;;;;;;5094022;28;19923;-78
2022/08/29 03:28:57;;;;;;;;;;;;;;;;;;5058979;28;20015;-78
2022/08/29 03:31:23;;;;;;;;;;;;;;;;;;5075832;28;19919;-79
2022/08/29 03:33:48;;;;;;;;;;;;;;;;;;5075574;28;19920;-79
2022/08/29 03:36:13;;;;;;;;;;;;;;;;;;5075747;28;19943;-79
2022/08/29 03:38:38;;;;;;;;;;;;;;;;;;5093847;28;20384;-79
2022/08/29 03:41:04;;;;;;;;;;;;;;;;;;5075785;28;19915;-79
2022/08/29 03:43:30;;;;;;;;;;;;;;;;;;5075643;28;19949;-79
2022/08/29 03:45:55;;;;;;;;;;;;;;;;;;5075334;28;19923;-79
2022/08/29 03:48:20;;;;;;;;;;;;;;;;;;5093439;28;19927;-79
2022/08/29 03:50:45;;;;;;;;;;;;;;;;;;5075336;28;20323;-79
2022/08/29 03:53:11;;;;;;;;;;;;;;;;;;5093214;28;19924;-79
2022/08/29 03:55:36;;;;;;;;;;;;;;;;;;5093340;28;20001;-79
2022/08/29 03:58:01;;;;;;;;;;;;;;;;;;5093255;28;20298;-79
2022/08/29 04:00:27;;;;;;;;;;;;;;;;;;5093433;28;20343;-79
2022/08/29 04:02:54;;;;;;;;;;;;;;;;;;5074523;28;19916;-79
2022/08/29 04:05:19;;;;;;;;;;;;;;;;;;5093784;28;20266;-79
2022/08/29 04:07:44;;;;;;;;;;;;;;;;;;5058509;28;19912;-79
2022/08/29 04:10:11;;;;;;;;;;;;;;;;;;5093212;28;20393;-81
2022/08/29 04:12:36;;;;;;;;;;;;;;;;;;5093182;28;19923;-86
2022/08/29 04:15:02;;;;;;;;;;;;;;;;;;5093421;28;19924;-81
2022/08/29 04:17:27;;;;;;;;;;;;;;;;;;5058317;28;19953;-81
2022/08/29 04:19:53;;;;;;;;;;;;;;;;;;5075068;28;19916;-81
2022/08/29 04:22:18;;;;;;;;;;;;;;;;;;5093178;28;19920;-79
2022/08/29 04:24:43;;;;;;;;;;;;;;;;;;5074927;28;19912;-81
2022/08/29 04:27:09;;;;;;;;;;;;;;;;;;5058299;28;19939;-82
2022/08/29 04:29:34;;;;;;;;;;;;;;;;;;5077966;28;19952;-81
2022/08/29 04:31:59;;;;;;;;;;;;;;;;;;5076668;28;20016;-80
2022/08/29 04:34:31;;;;;;;;;;;;;;;;;;5077142;28;19921;-79
2022/08/29 04:36:57;;;;;;;;;;;;;;;;;;5076422;28;20007;-79
2022/08/29 04:39:22;;;;;;;;;;;;;;;;;;5058235;28;19919;-78
2022/08/29 04:41:47;;;;;;;;;;;;;;;;;;5075286;28;20277;-79
2022/08/29 04:44:13;;;;;;;;;;;;;;;;;;5075743;28;19923;-79
2022/08/29 04:46:38;;;;;;;;;;;;;;;;;;5094385;28;19922;-78
2022/08/29 04:49:03;;;;;;;;;;;;;;;;;;5076281;28;19916;-76
2022/08/29 04:51:29;;;;;;;;;;;;;;;;;;5075225;28;19919;-77
2022/08/29 04:53:55;;;;;;;;;;;;;;;;;;5075094;28;19973;-77
2022/08/29 04:56:20;;;;;;;;;;;;;;;;;;5093050;28;19920;-76
2022/08/29 04:58:46;;;;;;;;;;;;;;;;;;5058269;28;19924;-77
2022/08/29 05:01:12;;;;;;;;;;;;;;;;;;5076048;28;19912;-77
2022/08/29 05:03:37;;;;;;;;;;;;;;;;;;5093470;28;19965;-77
2022/08/29 05:06:06;;;;;;;;;;;;;;;;;;5093001;28;19912;-76
2022/08/29 05:08:32;;;;;;;;;;;;;;;;;;5060262;28;20216;-77
2022/08/29 05:10:58;;;;;;;;;;;;;;;;;;5074918;28;20461;-77
2022/08/29 05:13:23;;;;;;;;;;;;;;;;;;5075173;28;19970;-77
2022/08/29 05:15:48;;;;;;;;;;;;;;;;;;5078222;28;19922;-76
2022/08/29 05:18:14;;;;;;;;;;;;;;;;;;5061724;28;19920;-76
2022/08/29 05:20:39;;;;;;;;;;;;;;;;;;5078235;28;19962;-76
2022/08/29 05:23:05;;;;;;;;;;;;;;;;;;5078830;28;20003;-75
2022/08/29 05:25:30;;;;;;;;;;;;;;;;;;5078315;28;20421;-76
2022/08/29 05:27:55;;;;;;;;;;;;;;;;;;5061545;28;19912;-76
2022/08/29 05:30:20;;;;;;;;;;;;;;;;;;5078249;28;19963;-75
2022/08/29 05:32:46;;;;;;;;;;;;;;;;;;5078716;28;20328;-76
2022/08/29 05:35:11;;;;;;;;;;;;;;;;;;5061619;28;19931;-75
2022/08/29 05:37:36;;;;;;;;;;;;;;;;;;5096425;28;19920;-76
2022/08/29 05:40:02;;;;;;;;;;;;;;;;;;5061438;28;19924;-76
2022/08/29 05:42:28;;;;;;;;;;;;;;;;;;5078303;28;20341;-76
2022/08/29 05:44:53;;;;;;;;;;;;;;;;;;5061304;28;19919;-76
2022/08/29 05:47:19;;;;;;;;;;;;;;;;;;5096000;28;19916;-76
2022/08/29 05:49:44;;;;;;;;;;;;;;;;;;5078175;28;20334;-75
2022/08/29 05:52:10;;;;;;;;;;;;;;;;;;5078176;28;19912;-75
2022/08/29 05:54:36;;;;;;;;;;;;;;;;;;5077567;28;19920;-75
2022/08/29 05:57:01;;;;;;;;;;;;;;;;;;5077752;28;19919;-76
2022/08/29 05:59:27;;;;;;;;;;;;;;;;;;5095908;28;19959;-76
2022/08/29 06:01:52;;;;;;;;;;;;;;;;;;5060938;28;19916;-76
2022/08/29 06:04:17;;;;;;;;;;;;;;;;;;5077427;28;20401;-76
2022/08/29 06:06:43;;;;;;;;;;;;;;;;;;5060836;28;19912;-75
2022/08/29 06:09:09;;;;;;;;;;;;;;;;;;5060970;28;19912;-75
2022/08/29 06:11:35;;;;;;;;;;;;;;;;;;5077786;28;19919;-76
2022/08/29 06:14:01;;;;;;;;;;;;;;;;;;5077351;28;19920;-76
2022/08/29 06:16:26;;;;;;;;;;;;;;;;;;5061137;28;19912;-75
2022/08/29 06:18:52;;;;;;;;;;;;;;;;;;5060551;28;20365;-76
2022/08/29 06:21:17;;;;;;;;;;;;;;;;;;5060642;28;19912;-75
2022/08/29 06:23:43;;;;;;;;;;;;;;;;;;5095483;28;19916;-76
2022/08/29 06:26:08;;;;;;;;;;;;;;;;;;5076373;28;19923;-76
2022/08/29 06:28:35;;;;;;;;;;;;;;;;;;5060295;28;19912;-76
2022/08/29 06:31:10;;;;;;;;;;;;;;;;;;5060234;28;19918;-76
2022/08/29 06:33:35;;;;;;;;;;;;;;;;;;5076973;28;19916;-76
2022/08/29 06:36:01;;;;;;;;;;;;;;;;;;5060078;28;19916;-76
2022/08/29 06:38:26;;;;;;;;;;;;;;;;;;5076854;28;19919;-76
2022/08/29 06:40:52;;;;;;;;;;;;;;;;;;5094892;28;19916;-75
2022/08/29 06:43:17;;;;;;;;;;;;;;;;;;5074616;28;19973;-76
2022/08/29 06:45:42;;;;;;;;;;;;;;;;;;5070490;28;20002;-76
2022/08/29 06:48:08;;;;;;;;;;;;;;;;;;5076745;28;19916;-76
2022/08/29 06:50:37;;;;;;;;;;;;;;;;;;5059960;28;19919;-75
2022/08/29 06:53:02;;;;;;;;;;;;;;;;;;5094857;28;19917;-75
2022/08/29 06:55:28;;;;;;;;;;;;;;;;;;5059693;28;19943;-75
2022/08/29 06:57:53;;;;;;;;;;;;;;;;;;5059631;28;19991;-75
2022/08/29 07:00:20;;;;;;;;;;;;;;;;;;5076370;28;19916;-76
2022/08/29 07:02:48;;;;;;;;;;;;;;;;;;5060078;28;19962;-75
2022/08/29 07:05:14;;;;;;;;;;;;;;;;;;5076411;28;20374;-74
2022/08/29 07:07:40;;;;;;;;;;;;;;;;;;5059599;28;19918;-77
2022/08/29 07:10:06;;;;;;;;;;;;;;;;;;5076656;28;20389;-75
2022/08/29 07:12:31;;;;;;;;;;;;;;;;;;5076167;28;19912;-77
2022/08/29 07:14:56;;;;;;;;;;;;;;;;;;5076132;28;20030;-77
2022/08/29 07:17:22;;;;;;;;;;;;;;;;;;5075980;28;19916;-75
2022/08/29 07:19:47;;;;;;;;;;;;;;;;;;5059220;28;19924;-77
2022/08/29 07:22:12;;;;;;;;;;;;;;;;;;5094493;28;19916;-77
2022/08/29 07:24:37;;;;;;;;;;;;;;;;;;5076250;28;19948;-77
2022/08/29 07:27:03;;;;;;;;;;;;;;;;;;5059173;28;20049;-77
2022/08/29 07:29:28;;;;;;;;;;;;;;;;;;5059145;28;20011;-77
2022/08/29 07:31:53;;;;;;;;;;;;;;;;;;5059158;28;19916;-76
2022/08/29 07:34:19;;;;;;;;;;;;;;;;;;5075745;28;20309;-76
2022/08/29 07:36:44;;;;;;;;;;;;;;;;;;5075496;28;19913;-76
2022/08/29 07:39:12;;;;;;;;;;;;;;;;;;5058651;28;19919;-76
2022/08/29 07:41:37;;;;;;;;;;;;;;;;;;5076001;28;19916;-76
2022/08/29 07:44:03;;;;;;;;;;;;;;;;;;5075696;28;19949;-76
2022/08/29 07:46:28;;;;;;;;;;;;;;;;;;5076111;28;19997;-77
2022/08/29 07:48:53;;;;;;;;;;;;;;;;;;5075943;28;20359;-76
2022/08/29 07:51:21;;;;;;;;;;;;;;;;;;5058817;28;20354;-77
2022/08/29 07:53:47;;;;;;;;;;;;;;;;;;5058879;28;19920;-76
2022/08/29 07:56:14;;;;;;;;;;;;;;;;;;5059235;28;19922;-77
2022/08/29 07:58:40;;;;;;;;;;;;;;;;;;5058792;28;19912;-76
2022/08/29 08:01:05;;;;;;;;;;;;;;;;;;5093873;28;19920;-77
2022/08/29 08:03:31;;;;;;;;;;;;;;;;;;5075464;28;19912;-77
2022/08/29 08:05:56;;;;;;;;;;;;;;;;;;5075320;28;20321;-77
2022/08/29 08:08:21;;;;;;;;;;;;;;;;;;5075314;28;19955;-76
2022/08/29 08:10:47;;;;;;;;;;;;;;;;;;5075669;28;20381;-77
2022/08/29 08:13:12;;;;;;;;;;;;;;;;;;5091754;28;19916;-77
2022/08/29 08:15:38;;;;;;;;;;;;;;;;;;5068407;28;19970;-76
2022/08/29 08:18:03;;;;;;;;;;;;;;;;;;5075660;28;19947;-77
2022/08/29 08:20:29;;;;;;;;;;;;;;;;;;5075827;28;20378;-76
2022/08/29 08:22:55;;;;;;;;;;;;;;;;;;5058609;28;20023;-77
2022/08/29 08:25:20;;;;;;;;;;;;;;;;;;5075461;28;20498;-76
2022/08/29 08:27:45;;;;;;;;;;;;;;;;;;5075286;28;19916;-77
2022/08/29 08:30:11;;;;;;;;;;;;;;;;;;5075110;28;19916;-76
2022/08/29 08:32:36;;;;;;;;;;;;;;;;;;5058404;28;19962;-77
2022/08/29 08:35:02;;;;;;;;;;;;;;;;;;5074893;28;20239;-77
2022/08/29 08:37:27;;;;;;;;;;;;;;;;;;5075322;28;19942;-76
2022/08/29 08:39:56;;;;;;;;;;;;;;;;;;5075346;28;19916;-77
2022/08/29 08:42:28;;;;;;;;;;;;;;;;;;5075108;28;19916;-77
2022/08/29 08:44:54;;;;;;;;;;;;;;;;;;5058409;28;19924;-77
2022/08/29 08:47:39;;;;;;;;;;;;;;;;;;5093048;28;19961;-77
2022/08/29 08:50:17;;;;;;;;;;;;;;;;;;5071047;28;19917;-77
2022/08/29 08:52:44;;;;;;;;;;;;;;;;;;5078817;28;19912;-76
2022/08/29 08:55:12;;;;;;;;;;;;;;;;;;5061814;28;19920;-77
2022/08/29 08:57:43;;;;;;;;;;;;;;;;;;5079103;28;20331;-76
2022/08/29 09:00:10;;;;;;;;;;;;;;;;;;5078802;28;19961;-76
2022/08/29 09:02:44;;;;;;;;;;;;;;;;;;5078634;28;20423;-77
2022/08/29 09:05:21;;;;;;;;;;;;;;;;;;5062267;28;19912;-77
2022/08/29 09:08:02;;;;;;;;;;;;;;;;;;5061890;28;20323;-76
2022/08/29 09:10:30;;;;;;;;;;;;;;;;;;5078611;28;19927;-77
2022/08/29 09:12:55;;;;;;;;;;;;;;;;;;5096636;28;20281;-77
2022/08/29 09:15:22;;;;;;;;;;;;;;;;;;5096928;28;19935;-77
2022/08/29 09:17:53;;;;;;;;;;;;;;;;;;5078863;28;19955;-77
2022/08/29 09:20:21;;;;;;;;;;;;;;;;;;5096679;28;20015;-77
2022/08/29 09:23:05;;;;;;;;;;;;;;;;;;5061794;28;19912;-75
2022/08/29 09:25:30;;;;;;;;;;;;;;;;;;5096679;28;20274;-76
2022/08/29 09:27:59;;;;;;;;;;;;;;;;;;5078805;28;19923;-76
2022/08/29 09:30:26;;;;;;;;;;;;;;;;;;5078484;28;19912;-76
2022/08/29 09:32:57;;;;;;;;;;;;;;;;;;5061370;28;19912;-76
2022/08/29 09:35:24;;;;;;;;;;;;;;;;;;5061228;28;19955;-76
2022/08/29 09:38:16;;;;;;;;;;;;;;;;;;5078055;28;19932;-76
2022/08/29 09:40:44;;;;;;;;;;;;;;;;;;5092943;28;19912;-76
2022/08/29 09:43:10;;;;;;;;;;;;;;;;;;5060435;28;20368;-76
2022/08/29 09:45:35;;;;;;;;;;;;;;;;;;5070888;28;20266;-76
2022/08/29 09:48:13;;;;;;;;;;;;;;;;;;5077925;28;19920;-76
2022/08/29 09:50:39;;;;;;;;;;;;;;;;;;5061075;28;19969;-76
2022/08/29 09:53:04;;;;;;;;;;;;;;;;;;5077892;28;19953;-76
2022/08/29 09:55:34;;;;;;;;;;;;;;;;;;5095819;28;19973;-76
2022/08/29 09:58:04;;;;;;;;;;;;;;;;;;5060892;28;19920;-76
2022/08/29 10:00:42;;;;;;;;;;;;;;;;;;5076607;28;19998;-76
2022/08/29 10:03:10;;;;;;;;;;;;;;;;;;5078445;28;19982;-76
2022/08/29 10:05:40;;;;;;;;;;;;;;;;;;5077538;28;19977;-76
2022/08/29 10:08:06;;;;;;;;;;;;;;;;;;5077761;28;20378;-76
2022/08/29 10:10:34;;;;;;;;;;;;;;;;;;5077487;28;19919;-76
2022/08/29 10:13:06;;;;;;;;;;;;;;;;;;5060961;28;20370;-76
2022/08/29 10:15:37;;;;;;;;;;;;;;;;;;5077872;28;19924;-76
2022/08/29 10:18:26;;;;;;;;;;;;;;;;;;5095380;28;19959;-76
2022/08/29 10:21:08;;;;;;;;;;;;;;;;;;5063228;28;19912;-76
2022/08/29 10:23:37;;;;;;;;;;;;;;;;;;5095394;28;19912;-74
2022/08/29 10:26:04;;;;;;;;;;;;;;;;;;5095676;28;20003;-77
2022/08/29 10:28:33;;;;;;;;;;;;;;;;;;5060272;28;19962;-77
2022/08/29 10:30:59;;;;;;;;;;;;;;;;;;5095454;28;20359;-77
2022/08/29 10:33:24;;;;;;;;;;;;;;;;;;5076877;28;19916;-77
2022/08/29 10:35:56;;;;;;;;;;;;;;;;;;5076776;28;19923;-77
2022/08/29 10:38:26;;;;;;;;;;;;;;;;;;5095014;28;19943;-77
2022/08/29 10:40:54;;;;;;;;;;;;;;;;;;5077137;28;20346;-77
2022/08/29 10:43:19;;;;;;;;;;;;;;;;;;5057736;28;19919;-77
2022/08/29 10:46:03;;;;;;;;;;;;;;;;;;5070883;28;20291;-77
2022/08/29 10:48:30;;;;;;;;;;;;;;;;;;5095275;28;19912;-77
2022/08/29 10:51:04;;;;;;;;;;;;;;;;;;5060466;28;19935;-77
2022/08/29 10:53:31;;;;;;;;;;;;;;;;;;5094539;28;19920;-77
2022/08/29 10:55:57;;;;;;;;;;;;;;;;;;5059684;28;19993;-77
2022/08/29 10:58:43;;;;;;;;;;;;;;;;;;5076541;28;19919;-77
2022/08/29 11:01:21;;;;;;;;;;;;;;;;;;5076808;28;19927;-76
2022/08/29 11:03:49;;;;;;;;;;;;;;;;;;5076994;28;19912;-77
2022/08/29 11:06:24;;;;;;;;;;;;;;;;;;5093300;28;20332;-77
2022/08/29 11:09:00;;;;;;;;;;;;;;;;;;5075666;28;19912;-77
2022/08/29 11:11:25;;;;;;;;;;;;;;;;;;5075462;28;19912;-77
2022/08/29 11:14:01;;;;;;;;;;;;;;;;;;5075462;28;19939;-77
2022/08/29 11:16:29;;;;;;;;;;;;;;;;;;5093530;28;19920;-78
2022/08/29 11:19:13;;;;;;;;;;;;;;;;;;5075446;28;20039;-77
2022/08/29 11:21:43;;;;;;;;;;;;;;;;;;5093525;28;19924;-77
2022/08/29 11:24:09;;;;;;;;;;;;;;;;;;5075339;28;19919;-77
2022/08/29 11:26:43;;;;;;;;;;;;;;;;;;5058698;28;19916;-77
2022/08/29 11:29:18;;;;;;;;;;;;;;;;;;5094435;28;19912;-77
2022/08/29 11:32:01;;;;;;;;;;;;;;;;;;5059588;28;19919;-77
2022/08/29 11:34:31;;;;;;;;;;;;;;;;;;5076479;28;20231;-77
2022/08/29 11:37:15;;;;;;;;;;;;;;;;;;5059432;28;19999;-77
2022/08/29 11:39:43;;;;;;;;;;;;;;;;;;5093908;28;19961;-77
2022/08/29 11:42:08;;;;;;;;;;;;;;;;;;5094083;28;19913;-77
2022/08/29 11:44:34;;;;;;;;;;;;;;;;;;5093770;28;19916;-77
2022/08/29 11:47:00;;;;;;;;;;;;;;;;;;5076126;28;19916;-77
2022/08/29 11:49:45;;;;;;;;;;;;;;;;;;5058949;28;20382;-76
2022/08/29 11:52:12;;;;;;;;;;;;;;;;;;5075807;28;20328;-76
2022/08/29 11:54:38;;;;;;;;;;;;;;;;;;5075183;28;19924;-76
2022/08/29 11:57:03;;;;;;;;;;;;;;;;;;5093698;28;19919;-76
2022/08/29 11:59:47;;;;;;;;;;;;;;;;;;5093855;28;19919;-76
2022/08/29 12:02:31;;;;;;;;;;;;;;;;;;5075318;28;20290;-76
2022/08/29 12:05:05;;;;;;;;;;;;;;;;;;5093473;28;20350;-77
2022/08/29 12:07:37;;;;;;;;;;;;;;;;;;5093450;28;19912;-77
2022/08/29 12:10:22;;;;;;;;;;;;;;;;;;5075388;28;19912;-77
2022/08/29 12:12:55;;;;;;;;;;;;;;;;;;5075113;28;19927;-76
2022/08/29 12:15:26;;;;;;;;;;;;;;;;;;5075623;28;19973;-76
2022/08/29 12:17:59;;;;;;;;;;;;;;;;;;5093359;28;19908;-76
2022/08/29 12:20:30;;;;;;;;;;;;;;;;;;5058584;28;20373;-76
2022/08/29 12:23:11;;;;;;;;;;;;;;;;;;5096767;28;20433;-77
2022/08/29 12:25:46;;;;;;;;;;;;;;;;;;5105274;28;19919;-77
2022/08/29 12:28:27;;;;;;;;;;;;;;;;;;5084347;28;19911;-77
2022/08/29 12:30:58;;;;;;;;;;;;;;;;;;5083618;28;20358;-77
2022/08/29 12:33:35;;;;;;;;;;;;;;;;;;5101728;28;20062;-77
2022/08/29 12:36:19;;;;;;;;;;;;;;;;;;5101348;28;19916;-77
2022/08/29 12:38:53;;;;;;;;;;;;;;;;;;5083685;28;20355;-77
2022/08/29 12:41:29;;;;;;;;;;;;;;;;;;5068804;28;19972;-76
2022/08/29 12:43:55;;;;;;;;;;;;;;;;;;5065237;28;20057;-77
2022/08/29 12:46:40;;;;;;;;;;;;;;;;;;5100129;28;20088;-77
2022/08/29 12:49:25;;;;;;;;;;;;;;;;;;5100314;28;19912;-77
2022/08/29 12:52:17;;;;;;;;;;;;;;;;;;5100580;28;19965;-77
2022/08/29 12:54:42;;;;;;;;;;;;;;;;;;5079568;28;20024;-77
2022/08/29 12:57:14;;;;;;;;;;;;;;;;;;5064874;28;19988;-78
2022/08/29 12:59:42;;;;;;;;;;;;;;;;;;5082048;28;19912;-77
2022/08/29 13:02:07;;;;;;;;;;;;;;;;;;5069495;28;19916;-77
2022/08/29 13:04:35;;;;;;;;;;;;;;;;;;5084140;28;19916;-76
2022/08/29 13:07:07;;;;;;;;;;;;;;;;;;5066550;28;20376;-77
2022/08/29 13:09:40;;;;;;;;;;;;;;;;;;5067240;28;19912;-76
2022/08/29 13:12:05;;;;;;;;;;;;;;;;;;5084552;28;20288;-75
2022/08/29 13:14:31;;;;;;;;;;;;;;;;;;5082955;28;19920;-75
2022/08/29 13:16:56;;;;;;;;;;;;;;;;;;5065365;28;20359;-76
2022/08/29 13:19:23;;;;;;;;;;;;;;;;;;5081730;28;20267;-77
2022/08/29 13:21:48;;;;;;;;;;;;;;;;;;5082137;28;19916;-77
2022/08/29 13:24:20;;;;;;;;;;;;;;;;;;5081721;28;20068;-76
2022/08/29 13:26:53;;;;;;;;;;;;;;;;;;5068077;28;19912;-77
2022/08/29 13:29:22;;;;;;;;;;;;;;;;;;5081642;28;20004;-77
2022/08/29 13:32:07;;;;;;;;;;;;;;;;;;5081604;28;19923;-77
2022/08/29 13:34:32;;;;;;;;;;;;;;;;;;5080593;28;19919;-77
2022/08/29 13:37:01;;;;;;;;;;;;;;;;;;5078035;28;19921;-76
2022/08/29 13:39:26;;;;;;;;;;;;;;;;;;5078415;28;19919;-77
2022/08/29 13:42:01;;;;;;;;;;;;;;;;;;5078350;28;19916;-76
2022/08/29 13:44:45;;;;;;;;;;;;;;;;;;5099348;28;19926;-77
2022/08/29 13:47:11;;;;;;;;;;;;;;;;;;5096789;28;19918;-77
2022/08/29 13:49:37;;;;;;;;;;;;;;;;;;5077897;28;19912;-76
2022/08/29 13:52:02;;;;;;;;;;;;;;;;;;5077839;28;19916;-76
2022/08/29 13:54:28;;;;;;;;;;;;;;;;;;5077477;28;19931;-76
2022/08/29 13:56:54;;;;;;;;;;;;;;;;;;5078089;28;20416;-77
2022/08/29 13:59:21;;;;;;;;;;;;;;;;;;5061329;28;19912;-76
2022/08/29 14:01:46;;;;;;;;;;;;;;;;;;5078798;28;20275;-77
2022/08/29 14:04:12;;;;;;;;;;;;;;;;;;5061784;28;20018;-76
2022/08/29 14:06:37;;;;;;;;;;;;;;;;;;5092954;28;19924;-76
2022/08/29 14:09:03;;;;;;;;;;;;;;;;;;5077489;28;19920;-76
2022/08/29 14:11:28;;;;;;;;;;;;;;;;;;5095646;28;19916;-76
2022/08/29 14:13:54;;;;;;;;;;;;;;;;;;5060857;28;19920;-76
2022/08/29 14:16:19;;;;;;;;;;;;;;;;;;5095095;28;20023;-76
2022/08/29 14:18:45;;;;;;;;;;;;;;;;;;5060500;28;19923;-75
2022/08/29 14:21:10;;;;;;;;;;;;;;;;;;5057588;28;19982;-76
2022/08/29 14:23:35;;;;;;;;;;;;;;;;;;5077710;28;20353;-76
2022/08/29 14:26:00;;;;;;;;;;;;;;;;;;5077310;28;19919;-77
2022/08/29 14:28:26;;;;;;;;;;;;;;;;;;5060459;28;19916;-77
2022/08/29 14:30:51;;;;;;;;;;;;;;;;;;5078083;28;19982;-75
2022/08/29 14:33:16;;;;;;;;;;;;;;;;;;5095934;28;20023;-76
2022/08/29 14:35:42;;;;;;;;;;;;;;;;;;5077643;28;19919;-77
2022/08/29 14:38:07;;;;;;;;;;;;;;;;;;5078761;28;20371;-77
2022/08/29 14:40:32;;;;;;;;;;;;;;;;;;5096016;28;19916;-78
2022/08/29 14:42:58;;;;;;;;;;;;;;;;;;5096192;28;20250;-77
2022/08/29 14:45:24;;;;;;;;;;;;;;;;;;5060743;28;19927;-77
2022/08/29 14:47:49;;;;;;;;;;;;;;;;;;5077007;28;19919;-76
2022/08/29 14:50:14;;;;;;;;;;;;;;;;;;5077017;28;19990;-77
2022/08/29 14:52:40;;;;;;;;;;;;;;;;;;5060218;28;19919;-77
2022/08/29 14:55:06;;;;;;;;;;;;;;;;;;5076802;28;19927;-77
2022/08/29 14:57:31;;;;;;;;;;;;;;;;;;5076928;28;19959;-78
2022/08/29 14:59:56;;;;;;;;;;;;;;;;;;5060099;28;20015;-78
2022/08/29 15:02:22;;;;;;;;;;;;;;;;;;5095493;28;20355;-77
2022/08/29 15:04:48;;;;;;;;;;;;;;;;;;5060605;28;19919;-77
2022/08/29 15:07:14;;;;;;;;;;;;;;;;;;5076728;28;20007;-77
2022/08/29 15:09:40;;;;;;;;;;;;;;;;;;5060077;28;19963;-77
2022/08/29 15:12:05;;;;;;;;;;;;;;;;;;5077030;28;20285;-77
2022/08/29 15:14:33;;;;;;;;;;;;;;;;;;5060181;28;20015;-77
2022/08/29 15:16:58;;;;;;;;;;;;;;;;;;5059929;28;20378;-77
2022/08/29 15:19:23;;;;;;;;;;;;;;;;;;5059828;28;19916;-76
2022/08/29 15:21:49;;;;;;;;;;;;;;;;;;5076355;28;19919;-78
2022/08/29 15:24:14;;;;;;;;;;;;;;;;;;5094328;28;20002;-77
2022/08/29 15:26:39;;;;;;;;;;;;;;;;;;5076378;28;20275;-78
2022/08/29 15:29:07;;;;;;;;;;;;;;;;;;5076749;28;19939;-77
2022/08/29 15:31:32;;;;;;;;;;;;;;;;;;5076561;28;19912;-77
2022/08/29 15:33:57;;;;;;;;;;;;;;;;;;5076277;28;20007;-77
2022/08/29 15:36:23;;;;;;;;;;;;;;;;;;5075792;28;20007;-78
2022/08/29 15:38:48;;;;;;;;;;;;;;;;;;5059026;28;19916;-78
2022/08/29 15:41:14;;;;;;;;;;;;;;;;;;5075736;28;19962;-77
2022/08/29 15:43:39;;;;;;;;;;;;;;;;;;5075926;28;20374;-78
2022/08/29 15:46:04;;;;;;;;;;;;;;;;;;5058714;28;19920;-78
2022/08/29 15:48:30;;;;;;;;;;;;;;;;;;5093996;28;20003;-78
2022/08/29 15:50:55;;;;;;;;;;;;;;;;;;5076258;28;20363;-78
2022/08/29 15:53:20;;;;;;;;;;;;;;;;;;5076140;28;20395;-78
2022/08/29 15:55:46;;;;;;;;;;;;;;;;;;5076115;28;20028;-78
2022/08/29 15:58:11;;;;;;;;;;;;;;;;;;5075435;28;19923;-79
2022/08/29 16:00:36;;;;;;;;;;;;;;;;;;5059602;28;19912;-78
2022/08/29 16:03:02;;;;;;;;;;;;;;;;;;5077058;28;19971;-77
2022/08/29 16:05:28;;;;;;;;;;;;;;;;;;5059751;28;19916;-77
2022/08/29 16:07:53;;;;;;;;;;;;;;;;;;5075793;28;19912;-77
2022/08/29 16:10:18;;;;;;;;;;;;;;;;;;5093610;28;19966;-77
2022/08/29 16:12:44;;;;;;;;;;;;;;;;;;5076093;28;19924;-75
2022/08/29 16:15:09;;;;;;;;;;;;;;;;;;5058871;28;20397;-76
2022/08/29 16:17:35;;;;;;;;;;;;;;;;;;5076305;28;19912;-76
2022/08/29 16:20:00;;;;;;;;;;;;;;;;;;5076571;28;19959;-78
2022/08/29 16:22:26;;;;;;;;;;;;;;;;;;5075745;28;20015;-79
2022/08/29 16:24:51;;;;;;;;;;;;;;;;;;5058762;28;19922;-76
2022/08/29 16:27:20;;;;;;;;;;;;;;;;;;5094048;28;19920;-77
2022/08/29 16:29:46;;;;;;;;;;;;;;;;;;5059359;28;19912;-76
2022/08/29 16:32:11;;;;;;;;;;;;;;;;;;5075808;28;19923;-76
2022/08/29 16:34:37;;;;;;;;;;;;;;;;;;5075458;28;20298;-77
2022/08/29 16:37:02;;;;;;;;;;;;;;;;;;5093879;28;19968;-77
2022/08/29 16:39:27;;;;;;;;;;;;;;;;;;5075594;28;19920;-77
2022/08/29 16:41:53;;;;;;;;;;;;;;;;;;5075718;28;19912;-76
2022/08/29 16:44:19;;;;;;;;;;;;;;;;;;5075483;28;19960;-77
2022/08/29 16:46:44;;;;;;;;;;;;;;;;;;5077158;28;19958;-76
2022/08/29 16:49:09;;;;;;;;;;;;;;;;;;5059524;28;19912;-76